PARDEE (PAR)

Elevation: 568' · MOKELUMNE R basin · Operator: East Bay Municipal Utility District

Provisional data, subject to change.
Query executed Tuesday at 7:57:12   clock

Select a sensor type for a plot of data.
Note: Reservoir Flows are daily averages.

Earlier

Date RES ELE    STORAGE    RES CHG    OUTFLOW    INFLOW    PPT INC   
 FEET   AF   AF   CFS   CFS   INCHES  
07/31/2016 563.58 189024 311 284 423 0.00
08/01/2016 563.49 188830 -194 559 462 0.00
08/02/2016 563.36 188566 -264 553 312 0.00
08/03/2016 563.36 188566 0 560 328 0.00
08/04/2016 563.18 188177 -389 563 334 0.00
08/05/2016 563.02 187819 -358 564 248 0.00
08/06/2016 563.11 188013 194 284 190 0.00
08/07/2016 563.23 188277 264 284 345 0.00
08/08/2016 563.05 187897 -380 284 367 0.00
08/09/2016 562.90 187557 -340 284 156 0.00
08/10/2016 562.72 187181 -376 284 162 0.00
08/11/2016 562.55 186821 -360 283 160 0.00
08/12/2016 562.45 186594 -227 283 161 0.00
08/13/2016 562.59 186898 304 283 238 0.00
08/14/2016 562.90 187570 672 283 442 0.00
08/15/2016 562.87 187506 -64 573 630 0.00
08/16/2016 562.79 187326 -180 568 375 0.00
08/17/2016 562.72 187181 -145 575 357 0.00
08/18/2016 562.75 187245 64 568 360 0.00
08/19/2016 562.70 187147 -98 583 419 0.00
08/20/2016 562.92 187605 458 294 317 0.00
08/21/2016 563.13 188061 456 294 457 0.00
08/22/2016 563.02 187832 -229 584 550 0.00
08/23/2016 562.99 187750 -82 571 350 0.00
08/24/2016 562.96 187703 -47 561 383 0.00
08/25/2016 562.92 187605 -98 578 401 0.00
08/26/2016 562.87 187510 -95 576 383 0.00
08/27/2016 563.14 188078 568 293 299 0.00
08/28/2016 563.03 187849 -229 613 574 0.00
08/29/2016 562.95 187669 -180 718 399 --
08/30/2016 -- -- -- -- -- --

Later | Latest

Warning! This data is preliminary and subject to revision.

Show PAR Map | Plot PAR Data | 1 Month PAR Data | Real-Time PAR Data | PAR Info